Alexander Maersk — OZRC2 — position and weather

sailwx.info

Track history (hours):
 
Tides and Currents Weather Stations Pressure Air Temp Water Temp Dewpoint Dewpoint Depression Visibility Wind Speed Wind Dir Waves Ship Positions

Alexander Maersk

Last reported at 2014-Sep-03 00:16 UTC. Time now 2014-Sep-03 05:00 UTC.
Position N 37°07' E 024°00'.

Length 155 m; draft 5.3 m.

Type: Ship. MMSI: 219470000.

Date/timePositionNaut miles runAvg speedWind from/ knotsBaromVisibWave heightAir tempDewpointWater temp
2014-Sep-03 00:16N 37°07' E 024°00'16 9.1
2014-Sep-02 22:31N 37°20' E 024°12'18 8.9
2014-Sep-02 20:32N 37°34' E 024°24'8 8.3
2014-Sep-02 19:33N 37°41' E 024°30'10 8.6
2014-Sep-02 18:20N 37°51' E 024°34'78 8.6
2014-Sep-02 09:20N 39°01' E 025°18'1810.2
2014-Sep-02 07:33N 39°17' E 025°28'12 9.6
2014-Sep-02 06:17N 39°29' E 025°34'810.4
2014-Sep-02 05:33N 39°36' E 025°37'1310.6
2014-Sep-02 04:19N 39°47' E 025°46'1011.2
2014-Sep-02 03:23N 39°56' E 025°53'14310.8
2014-Sep-01 14:07N 40°54' E 028°44'8 8.8
2014-Sep-01 13:15N 40°58' E 028°53'0 0.1
2014-Sep-01 12:29N 40°58' E 028°53'0 0.0
2014-Sep-01 11:30N 40°58' E 028°53'0 0.0
2014-Sep-01 10:31N 40°58' E 028°53'3 3.0
2014-Sep-01 09:33N 40°57' E 028°57'9 9.1
2014-Sep-01 08:33N 40°49' E 029°04'8 8.2
2014-Sep-01 07:33N 40°45' E 029°12'9 8.8
2014-Sep-01 06:33N 40°44' E 029°24'3 0.3
2014-Aug-31 20:31N 40°43' E 029°28'0 0.0
2014-Aug-31 19:19N 40°43' E 029°28'0 0.0
2014-Aug-31 18:31N 40°43' E 029°28'0 0.0
2014-Aug-31 15:13N 40°43' E 029°28'0 0.0
2014-Aug-31 14:19N 40°43' E 029°28'0 0.0
2014-Aug-31 03:31N 40°43' E 029°28'0 0.0
2014-Aug-30 09:04N 40°43' E 029°28'0 0.0
2014-Aug-30 06:16N 40°43' E 029°28'0 0.0
2014-Aug-30 05:34N 40°43' E 029°28'0 0.0
2014-Aug-30 04:28N 40°43' E 029°28'0 0.0
2014-Aug-30 03:10N 40°43' E 029°28'0 0.0
2014-Aug-30 02:22N 40°43' E 029°28'0 0.0
2014-Aug-30 01:16N 40°43' E 029°28'0 0.0
2014-Aug-30 00:28N 40°43' E 029°28'0 0.0
2014-Aug-29 23:04N 40°43' E 029°28'0 0.0
2014-Aug-29 22:28N 40°43' E 029°28'0 0.0
2014-Aug-29 07:28N 40°43' E 029°28'0 0.0
2014-Aug-29 06:22N 40°43' E 029°28'0 0.0
2014-Aug-29 05:28N 40°43' E 029°28'0 0.0
2014-Aug-29 03:16N 40°43' E 029°28'0 0.0
2014-Aug-29 02:22N 40°43' E 029°28'0 0.0
2014-Aug-29 01:28N 40°43' E 029°28'0 0.0
2014-Aug-29 00:28N 40°43' E 029°28'0 0.0
2014-Aug-28 13:28N 40°43' E 029°28'0 0.0
2014-Aug-28 12:28N 40°43' E 029°28'0 0.0
2014-Aug-28 11:22N 40°43' E 029°28'0 0.0
2014-Aug-28 10:22N 40°43' E 029°28'0 0.0
2014-Aug-28 06:28N 40°43' E 029°28'0 0.0
2014-Aug-27 20:28N 40°43' E 029°28'0 0.0
2014-Aug-27 14:28N 40°43' E 029°28'0 0.0
2014-Aug-27 13:22N 40°43' E 029°28'0 0.0
2014-Aug-27 07:28N 40°43' E 029°28'0 0.0
2014-Aug-27 04:28N 40°43' E 029°28'0 0.0
2014-Aug-27 02:28N 40°43' E 029°28'0 0.0
2014-Aug-27 01:10N 40°43' E 029°28'0 0.0
2014-Aug-27 00:10N 40°43' E 029°28'0 0.0
2014-Aug-26 23:28N 40°43' E 029°28'0 0.0
2014-Aug-26 22:28N 40°43' E 029°28'0 0.0
2014-Aug-26 21:22N 40°43' E 029°28'0 0.0
2014-Aug-26 20:16N 40°43' E 029°28'0 0.0
2014-Aug-26 19:16N 40°43' E 029°28'0 0.0
2014-Aug-26 18:28N 40°43' E 029°28'0 0.0
2014-Aug-26 14:13N 40°43' E 029°28'0 0.0
2014-Aug-26 11:13N 40°43' E 029°28'0 0.0
2014-Aug-26 10:22N 40°43' E 029°28'0 0.0
2014-Aug-26 09:16N 40°43' E 029°28'0 0.0
2014-Aug-26 07:28N 40°43' E 029°28'0 0.0
2014-Aug-26 05:16N 40°43' E 029°28'0 0.0
2014-Aug-26 04:28N 40°43' E 029°28'0 0.0
2014-Aug-26 03:28N 40°43' E 029°28'0 0.0
2014-Aug-26 00:28N 40°43' E 029°28'0 0.0
2014-Aug-25 23:16N 40°43' E 029°28'0 0.0
2014-Aug-25 22:16N 40°43' E 029°28'0 0.0
2014-Aug-25 21:28N 40°43' E 029°28'0 0.0
2014-Aug-25 20:28N 40°43' E 029°28'0 0.0
2014-Aug-25 19:04N 40°43' E 029°28'0 0.0
2014-Aug-25 15:22N 40°43' E 029°28'0 0.0
2014-Aug-25 13:16N 40°43' E 029°28'0 0.0
2014-Aug-25 12:22N 40°43' E 029°28'0 0.0
2014-Aug-25 10:22N 40°43' E 029°28'0 0.0
2014-Aug-24 22:22N 40°43' E 029°28'0 0.0
2014-Aug-24 20:22N 40°43' E 029°28'0 0.0
2014-Aug-24 19:22N 40°43' E 029°28'0 0.0
2014-Aug-24 18:28N 40°43' E 029°28'0 0.0
2014-Aug-24 16:28N 40°43' E 029°28'0 0.0
2014-Aug-24 15:22N 40°43' E 029°28'0 0.0
2014-Aug-24 14:16N 40°43' E 029°28'0 0.0
2014-Aug-24 13:04N 40°43' E 029°28'0 0.0
2014-Aug-24 12:22N 40°43' E 029°28'0 0.0
2014-Aug-24 11:28N 40°43' E 029°28'0 0.0
2014-Aug-24 10:10N 40°43' E 029°28'0 0.0
2014-Aug-24 09:28N 40°43' E 029°28'0 0.0
2014-Aug-24 08:28N 40°43' E 029°28'0 0.0
2014-Aug-24 07:28N 40°43' E 029°28'0 0.0
2014-Aug-24 05:28N 40°43' E 029°28'0 0.0
2014-Aug-24 04:04N 40°43' E 029°28'0 0.0
2014-Aug-24 03:22N 40°43' E 029°28'0 0.0
2014-Aug-24 02:28N 40°43' E 029°28'0 0.0
2014-Aug-24 01:28N 40°43' E 029°28'  
Track history (hours):
 
Tides and Currents Weather Stations Pressure Air Temp Water Temp Dewpoint Dewpoint Depression Visibility Wind Speed Wind Dir Waves Ship Positions

Alexander Maersk

Last reported at 2014-Sep-03 00:16 UTC. Time now 2014-Sep-03 05:00 UTC.
Position N 37°07' E 024°00'.

Length 155 m; draft 5.3 m.

Type: Ship. MMSI: 219470000.

Date/timePositionNaut miles runAvg speedWind from/ knotsBaromVisibWave heightAir tempDewpointWater temp
2014-Sep-03 00:16N 37°07' E 024°00'16 9.1
2014-Sep-02 22:31N 37°20' E 024°12'18 8.9
2014-Sep-02 20:32N 37°34' E 024°24'8 8.3
2014-Sep-02 19:33N 37°41' E 024°30'10 8.6
2014-Sep-02 18:20N 37°51' E 024°34'78 8.6
2014-Sep-02 09:20N 39°01' E 025°18'1810.2
2014-Sep-02 07:33N 39°17' E 025°28'12 9.6
2014-Sep-02 06:17N 39°29' E 025°34'810.4
2014-Sep-02 05:33N 39°36' E 025°37'1310.6
2014-Sep-02 04:19N 39°47' E 025°46'1011.2
2014-Sep-02 03:23N 39°56' E 025°53'14310.8
2014-Sep-01 14:07N 40°54' E 028°44'8 8.8
2014-Sep-01 13:15N 40°58' E 028°53'0 0.1
2014-Sep-01 12:29N 40°58' E 028°53'0 0.0
2014-Sep-01 11:30N 40°58' E 028°53'0 0.0
2014-Sep-01 10:31N 40°58' E 028°53'3 3.0
2014-Sep-01 09:33N 40°57' E 028°57'9 9.1
2014-Sep-01 08:33N 40°49' E 029°04'8 8.2
2014-Sep-01 07:33N 40°45' E 029°12'9 8.8
2014-Sep-01 06:33N 40°44' E 029°24'3 0.3
2014-Aug-31 20:31N 40°43' E 029°28'0 0.0
2014-Aug-31 19:19N 40°43' E 029°28'0 0.0
2014-Aug-31 18:31N 40°43' E 029°28'0 0.0
2014-Aug-31 15:13N 40°43' E 029°28'0 0.0
2014-Aug-31 14:19N 40°43' E 029°28'0 0.0
2014-Aug-31 03:31N 40°43' E 029°28'0 0.0
2014-Aug-30 09:04N 40°43' E 029°28'0 0.0
2014-Aug-30 06:16N 40°43' E 029°28'0 0.0
2014-Aug-30 05:34N 40°43' E 029°28'0 0.0
2014-Aug-30 04:28N 40°43' E 029°28'0 0.0
2014-Aug-30 03:10N 40°43' E 029°28'0 0.0
2014-Aug-30 02:22N 40°43' E 029°28'0 0.0
2014-Aug-30 01:16N 40°43' E 029°28'0 0.0
2014-Aug-30 00:28N 40°43' E 029°28'0 0.0
2014-Aug-29 23:04N 40°43' E 029°28'0 0.0
2014-Aug-29 22:28N 40°43' E 029°28'0 0.0
2014-Aug-29 07:28N 40°43' E 029°28'0 0.0
2014-Aug-29 06:22N 40°43' E 029°28'0 0.0
2014-Aug-29 05:28N 40°43' E 029°28'0 0.0
2014-Aug-29 03:16N 40°43' E 029°28'0 0.0
2014-Aug-29 02:22N 40°43' E 029°28'0 0.0
2014-Aug-29 01:28N 40°43' E 029°28'0 0.0
2014-Aug-29 00:28N 40°43' E 029°28'0 0.0
2014-Aug-28 13:28N 40°43' E 029°28'0 0.0
2014-Aug-28 12:28N 40°43' E 029°28'0 0.0
2014-Aug-28 11:22N 40°43' E 029°28'0 0.0
2014-Aug-28 10:22N 40°43' E 029°28'0 0.0
2014-Aug-28 06:28N 40°43' E 029°28'0 0.0
2014-Aug-27 20:28N 40°43' E 029°28'0 0.0
2014-Aug-27 14:28N 40°43' E 029°28'0 0.0
2014-Aug-27 13:22N 40°43' E 029°28'0 0.0
2014-Aug-27 07:28N 40°43' E 029°28'0 0.0
2014-Aug-27 04:28N 40°43' E 029°28'0 0.0
2014-Aug-27 02:28N 40°43' E 029°28'0 0.0
2014-Aug-27 01:10N 40°43' E 029°28'0 0.0
2014-Aug-27 00:10N 40°43' E 029°28'0 0.0
2014-Aug-26 23:28N 40°43' E 029°28'0 0.0
2014-Aug-26 22:28N 40°43' E 029°28'0 0.0
2014-Aug-26 21:22N 40°43' E 029°28'0 0.0
2014-Aug-26 20:16N 40°43' E 029°28'0 0.0
2014-Aug-26 19:16N 40°43' E 029°28'0 0.0
2014-Aug-26 18:28N 40°43' E 029°28'0 0.0
2014-Aug-26 14:13N 40°43' E 029°28'0 0.0
2014-Aug-26 11:13N 40°43' E 029°28'0 0.0
2014-Aug-26 10:22N 40°43' E 029°28'0 0.0
2014-Aug-26 09:16N 40°43' E 029°28'0 0.0
2014-Aug-26 07:28N 40°43' E 029°28'0 0.0
2014-Aug-26 05:16N 40°43' E 029°28'0 0.0
2014-Aug-26 04:28N 40°43' E 029°28'0 0.0
2014-Aug-26 03:28N 40°43' E 029°28'0 0.0
2014-Aug-26 00:28N 40°43' E 029°28'0 0.0
2014-Aug-25 23:16N 40°43' E 029°28'0 0.0
2014-Aug-25 22:16N 40°43' E 029°28'0 0.0
2014-Aug-25 21:28N 40°43' E 029°28'0 0.0
2014-Aug-25 20:28N 40°43' E 029°28'0 0.0
2014-Aug-25 19:04N 40°43' E 029°28'0 0.0
2014-Aug-25 15:22N 40°43' E 029°28'0 0.0
2014-Aug-25 13:16N 40°43' E 029°28'0 0.0
2014-Aug-25 12:22N 40°43' E 029°28'0 0.0
2014-Aug-25 10:22N 40°43' E 029°28'0 0.0
2014-Aug-24 22:22N 40°43' E 029°28'0 0.0
2014-Aug-24 20:22N 40°43' E 029°28'0 0.0
2014-Aug-24 19:22N 40°43' E 029°28'0 0.0
2014-Aug-24 18:28N 40°43' E 029°28'0 0.0
2014-Aug-24 16:28N 40°43' E 029°28'0 0.0
2014-Aug-24 15:22N 40°43' E 029°28'0 0.0
2014-Aug-24 14:16N 40°43' E 029°28'0 0.0
2014-Aug-24 13:04N 40°43' E 029°28'0 0.0
2014-Aug-24 12:22N 40°43' E 029°28'0 0.0
2014-Aug-24 11:28N 40°43' E 029°28'0 0.0
2014-Aug-24 10:10N 40°43' E 029°28'0 0.0
2014-Aug-24 09:28N 40°43' E 029°28'0 0.0
2014-Aug-24 08:28N 40°43' E 029°28'0 0.0
2014-Aug-24 07:28N 40°43' E 029°28'0 0.0
2014-Aug-24 05:28N 40°43' E 029°28'0 0.0
2014-Aug-24 04:04N 40°43' E 029°28'0 0.0
2014-Aug-24 03:22N 40°43' E 029°28'0 0.0
2014-Aug-24 02:28N 40°43' E 029°28'0 0.0
2014-Aug-24 01:28N 40°43' E 029°28'  

Dump ship's entire track history